sensor_id;sensor_type;location;lat;lon;timestamp;pressure;altitude;pressure_sealevel;temperature;humidity
21826;BME280;11075;47.944;11.776;2022-12-10T00:01:20;93353.03;;;6.78;24.43
21826;BME280;11075;47.944;11.776;2022-12-10T00:03:47;93347.53;;;6.86;24.52
21826;BME280;11075;47.944;11.776;2022-12-10T00:06:17;93353.81;;;7.25;23.77
21826;BME280;11075;47.944;11.776;2022-12-10T00:08:44;93356.50;;;6.78;24.25
21826;BME280;11075;47.944;11.776;2022-12-10T00:11:13;93360.72;;;7.11;23.80
21826;BME280;11075;47.944;11.776;2022-12-10T00:13:41;93355.25;;;6.44;24.77
21826;BME280;11075;47.944;11.776;2022-12-10T00:16:10;93325.31;;;4.82;26.98
21826;BME280;11075;47.944;11.776;2022-12-10T00:18:37;93338.44;;;6.75;24.42
21826;BME280;11075;47.944;11.776;2022-12-10T00:21:06;93335.84;;;6.94;24.04
21826;BME280;11075;47.944;11.776;2022-12-10T00:23:34;93332.81;;;7.27;23.75
21826;BME280;11075;47.944;11.776;2022-12-10T00:26:12;93348.03;;;6.92;24.02
21826;BME280;11075;47.944;11.776;2022-12-10T00:28:40;93364.00;;;7.71;23.53
21826;BME280;11075;47.944;11.776;2022-12-10T00:31:11;93353.59;;;7.50;23.56
21826;BME280;11075;47.944;11.776;2022-12-10T00:33:38;93353.28;;;7.20;24.08
21826;BME280;11075;47.944;11.776;2022-12-10T00:36:08;93344.22;;;7.95;23.23
21826;BME280;11075;47.944;11.776;2022-12-10T00:38:37;93340.78;;;7.24;23.86
21826;BME280;11075;47.944;11.776;2022-12-10T00:41:05;93337.06;;;6.66;24.77
21826;BME280;11075;47.944;11.776;2022-12-10T00:43:33;93338.94;;;6.49;24.68
21826;BME280;11075;47.944;11.776;2022-12-10T00:46:00;93347.47;;;6.11;25.37
21826;BME280;11075;47.944;11.776;2022-12-10T00:48:28;93351.56;;;6.96;24.10
21826;BME280;11075;47.944;11.776;2022-12-10T00:51:00;93364.53;;;7.10;23.69
21826;BME280;11075;47.944;11.776;2022-12-10T00:53:29;93366.22;;;6.27;24.78
21826;BME280;11075;47.944;11.776;2022-12-10T00:55:57;93368.56;;;7.19;23.77
21826;BME280;11075;47.944;11.776;2022-12-10T00:58:27;93374.59;;;7.64;23.31
21826;BME280;11075;47.944;11.776;2022-12-10T01:00:54;93371.34;;;7.07;23.91
21826;BME280;11075;47.944;11.776;2022-12-10T01:03:22;93367.56;;;7.08;23.95
21826;BME280;11075;47.944;11.776;2022-12-10T01:05:49;93384.41;;;7.24;23.91
21826;BME280;11075;47.944;11.776;2022-12-10T01:08:15;93382.53;;;7.60;23.68
21826;BME280;11075;47.944;11.776;2022-12-10T01:10:42;93384.28;;;7.87;23.22
21826;BME280;11075;47.944;11.776;2022-12-10T01:13:09;93393.22;;;7.41;23.50
21826;BME280;11075;47.944;11.776;2022-12-10T01:15:39;93383.78;;;7.47;23.60
21826;BME280;11075;47.944;11.776;2022-12-10T01:18:06;93377.91;;;7.41;23.68
21826;BME280;11075;47.944;11.776;2022-12-10T01:20:35;93363.84;;;6.81;24.71
21826;BME280;11075;47.944;11.776;2022-12-10T01:23:03;93380.44;;;7.69;23.40
21826;BME280;11075;47.944;11.776;2022-12-10T01:25:30;93378.25;;;6.77;24.36
21826;BME280;11075;47.944;11.776;2022-12-10T01:27:59;93381.75;;;7.59;23.39
21826;BME280;11075;47.944;11.776;2022-12-10T01:30:25;93380.00;;;7.32;24.00
21826;BME280;11075;47.944;11.776;2022-12-10T01:32:52;93370.50;;;7.03;24.35
21826;BME280;11075;47.944;11.776;2022-12-10T01:35:19;93376.16;;;7.49;23.83
21826;BME280;11075;47.944;11.776;2022-12-10T01:37:46;93386.22;;;7.20;23.79
21826;BME280;11075;47.944;11.776;2022-12-10T01:40:14;93378.94;;;7.52;23.53
21826;BME280;11075;47.944;11.776;2022-12-10T01:42:40;93376.47;;;7.28;23.95
21826;BME280;11075;47.944;11.776;2022-12-10T01:45:11;93377.41;;;6.88;24.50
21826;BME280;11075;47.944;11.776;2022-12-10T01:47:39;93372.69;;;6.26;25.16
21826;BME280;11075;47.944;11.776;2022-12-10T01:50:07;93380.44;;;7.03;24.47
21826;BME280;11075;47.944;11.776;2022-12-10T01:52:36;93386.81;;;7.14;24.11
21826;BME280;11075;47.944;11.776;2022-12-10T01:55:09;93392.25;;;7.49;23.85
21826;BME280;11075;47.944;11.776;2022-12-10T01:57:54;93400.09;;;7.57;23.85
21826;BME280;11075;47.944;11.776;2022-12-10T02:00:21;93400.97;;;6.99;24.15
21826;BME280;11075;47.944;11.776;2022-12-10T02:02:59;93406.84;;;7.51;23.69
21826;BME280;11075;47.944;11.776;2022-12-10T02:18:30;93402.81;;;7.42;23.79
21826;BME280;11075;47.944;11.776;2022-12-10T02:21:03;93399.84;;;7.15;24.00
21826;BME280;11075;47.944;11.776;2022-12-10T02:24:04;93382.50;;;5.94;25.34
21826;BME280;11075;47.944;11.776;2022-12-10T02:26:58;93401.84;;;7.18;24.04
21826;BME280;11075;47.944;11.776;2022-12-10T02:29:30;93394.75;;;6.94;24.63
21826;BME280;11075;47.944;11.776;2022-12-10T02:32:02;93383.44;;;6.70;24.65
21826;BME280;11075;47.944;11.776;2022-12-10T02:34:38;93379.25;;;6.28;25.09
21826;BME280;11075;47.944;11.776;2022-12-10T02:37:16;93379.53;;;6.67;25.00
21826;BME280;11075;47.944;11.776;2022-12-10T02:39:50;93376.91;;;6.39;24.43
21826;BME280;11075;47.944;11.776;2022-12-10T02:42:21;93392.09;;;8.12;22.96
21826;BME280;11075;47.944;11.776;2022-12-10T02:44:53;93386.47;;;7.00;24.22
21826;BME280;11075;47.944;11.776;2022-12-10T02:47:22;93398.56;;;6.93;24.37
21826;BME280;11075;47.944;11.776;2022-12-10T02:49:50;93404.22;;;7.71;23.13
21826;BME280;11075;47.944;11.776;2022-12-10T02:52:20;93406.63;;;7.76;23.29
21826;BME280;11075;47.944;11.776;2022-12-10T02:54:52;93398.56;;;7.41;23.58
21826;BME280;11075;47.944;11.776;2022-12-10T02:57:37;93396.06;;;6.85;24.51
21826;BME280;11075;47.944;11.776;2022-12-10T03:00:09;93397.31;;;8.05;23.18
21826;BME280;11075;47.944;11.776;2022-12-10T03:08:06;93390.53;;;6.78;24.50
21826;BME280;11075;47.944;11.776;2022-12-10T03:10:48;93391.31;;;7.76;23.37
21826;BME280;11075;47.944;11.776;2022-12-10T03:13:21;93384.56;;;7.16;24.16
21826;BME280;11075;47.944;11.776;2022-12-10T03:15:51;93386.22;;;7.20;23.68
21826;BME280;11075;47.944;11.776;2022-12-10T03:18:22;93380.25;;;7.11;24.25
21826;BME280;11075;47.944;11.776;2022-12-10T03:20:52;93393.09;;;6.58;24.56
21826;BME280;11075;47.944;11.776;2022-12-10T03:23:21;93370.44;;;6.40;25.15
21826;BME280;11075;47.944;11.776;2022-12-10T03:25:50;93387.69;;;7.02;24.20
21826;BME280;11075;47.944;11.776;2022-12-10T03:28:19;93378.81;;;5.34;26.26
21826;BME280;11075;47.944;11.776;2022-12-10T03:30:48;93380.75;;;7.17;24.23
21826;BME280;11075;47.944;11.776;2022-12-10T03:33:17;93392.44;;;7.75;23.17
21826;BME280;11075;47.944;11.776;2022-12-10T03:35:45;93369.09;;;6.78;24.67
21826;BME280;11075;47.944;11.776;2022-12-10T03:38:13;93377.66;;;7.81;23.38
21826;BME280;11075;47.944;11.776;2022-12-10T03:40:42;93377.88;;;7.57;23.45
21826;BME280;11075;47.944;11.776;2022-12-10T03:43:12;93369.97;;;6.82;24.48
21826;BME280;11075;47.944;11.776;2022-12-10T03:45:40;93371.69;;;6.90;24.11
21826;BME280;11075;47.944;11.776;2022-12-10T03:48:07;93369.72;;;7.69;23.71
21826;BME280;11075;47.944;11.776;2022-12-10T03:50:35;93367.84;;;6.44;24.95
21826;BME280;11075;47.944;11.776;2022-12-10T03:53:02;93362.72;;;6.11;25.22
21826;BME280;11075;47.944;11.776;2022-12-10T03:55:28;93371.78;;;7.41;24.06
21826;BME280;11075;47.944;11.776;2022-12-10T03:57:55;93373.22;;;7.54;23.71
21826;BME280;11075;47.944;11.776;2022-12-10T04:00:22;93377.97;;;7.60;23.50
21826;BME280;11075;47.944;11.776;2022-12-10T04:02:49;93371.84;;;7.44;23.79
21826;BME280;11075;47.944;11.776;2022-12-10T04:05:17;93363.97;;;7.51;23.73
21826;BME280;11075;47.944;11.776;2022-12-10T04:07:43;93364.44;;;6.75;24.52
21826;BME280;11075;47.944;11.776;2022-12-10T04:10:10;93368.41;;;7.44;23.70
21826;BME280;11075;47.944;11.776;2022-12-10T04:12:37;93351.84;;;6.91;24.43
21826;BME280;11075;47.944;11.776;2022-12-10T04:15:05;93368.66;;;7.74;23.49
21826;BME280;11075;47.944;11.776;2022-12-10T04:17:51;93371.97;;;7.01;24.30
21826;BME280;11075;47.944;11.776;2022-12-10T04:20:19;93372.56;;;7.41;23.71
21826;BME280;11075;47.944;11.776;2022-12-10T04:23:04;93377.66;;;7.81;23.42
21826;BME280;11075;47.944;11.776;2022-12-10T04:25:49;93376.47;;;7.63;23.63
21826;BME280;11075;47.944;11.776;2022-12-10T04:28:34;93370.81;;;7.17;24.07
21826;BME280;11075;47.944;11.776;2022-12-10T04:31:02;93382.44;;;7.72;23.50
21826;BME280;11075;47.944;11.776;2022-12-10T04:33:29;93391.53;;;8.41;22.77
21826;BME280;11075;47.944;11.776;2022-12-10T04:35:56;93382.22;;;7.46;23.71
21826;BME280;11075;47.944;11.776;2022-12-10T04:38:22;93379.38;;;7.39;23.84
21826;BME280;11075;47.944;11.776;2022-12-10T04:40:50;93375.16;;;7.22;24.05
21826;BME280;11075;47.944;11.776;2022-12-10T04:43:17;93381.81;;;7.79;23.58
21826;BME280;11075;47.944;11.776;2022-12-10T04:45:43;93384.88;;;7.62;23.64
21826;BME280;11075;47.944;11.776;2022-12-10T04:48:10;93376.09;;;7.45;23.90
21826;BME280;11075;47.944;11.776;2022-12-10T04:50:37;93368.78;;;7.26;23.90
21826;BME280;11075;47.944;11.776;2022-12-10T04:53:05;93373.41;;;6.67;24.46
21826;BME280;11075;47.944;11.776;2022-12-10T04:55:32;93363.59;;;7.02;24.24
21826;BME280;11075;47.944;11.776;2022-12-10T04:57:59;93369.19;;;7.44;23.77
21826;BME280;11075;47.944;11.776;2022-12-10T05:00:25;93374.28;;;6.71;24.92
21826;BME280;11075;47.944;11.776;2022-12-10T05:02:53;93361.69;;;7.03;24.56
21826;BME280;11075;47.944;11.776;2022-12-10T05:05:20;93358.22;;;7.02;24.42
21826;BME280;11075;47.944;11.776;2022-12-10T05:07:47;93356.59;;;6.38;24.93
21826;BME280;11075;47.944;11.776;2022-12-10T05:10:14;93357.25;;;6.47;25.17
21826;BME280;11075;47.944;11.776;2022-12-10T05:12:41;93376.63;;;7.35;24.05
21826;BME280;11075;47.944;11.776;2022-12-10T05:15:08;93375.19;;;6.19;25.63
21826;BME280;11075;47.944;11.776;2022-12-10T05:17:36;93366.34;;;6.90;24.41
21826;BME280;11075;47.944;11.776;2022-12-10T05:20:03;93373.16;;;6.87;24.70
21826;BME280;11075;47.944;11.776;2022-12-10T05:22:30;93364.94;;;6.64;24.63
21826;BME280;11075;47.944;11.776;2022-12-10T05:25:16;93362.38;;;7.15;24.33
21826;BME280;11075;47.944;11.776;2022-12-10T05:27:43;93372.63;;;7.45;23.95
21826;BME280;11075;47.944;11.776;2022-12-10T05:30:10;93369.53;;;6.95;24.37
21826;BME280;11075;47.944;11.776;2022-12-10T05:32:37;93376.19;;;6.86;24.42
21826;BME280;11075;47.944;11.776;2022-12-10T05:35:04;93381.88;;;7.00;24.41
21826;BME280;11075;47.944;11.776;2022-12-10T05:37:32;93374.03;;;7.07;24.41
21826;BME280;11075;47.944;11.776;2022-12-10T05:39:59;93378.34;;;7.12;24.28
21826;BME280;11075;47.944;11.776;2022-12-10T05:42:27;93386.53;;;6.72;24.59
21826;BME280;11075;47.944;11.776;2022-12-10T05:44:54;93386.31;;;7.24;23.86
21826;BME280;11075;47.944;11.776;2022-12-10T05:47:22;93380.25;;;7.11;24.37
21826;BME280;11075;47.944;11.776;2022-12-10T05:49:48;93393.31;;;7.79;23.49
21826;BME280;11075;47.944;11.776;2022-12-10T05:52:18;93399.78;;;8.13;22.99
21826;BME280;11075;47.944;11.776;2022-12-10T05:54:45;93397.19;;;7.31;23.63
21826;BME280;11075;47.944;11.776;2022-12-10T05:57:12;93391.81;;;7.15;24.22
21826;BME280;11075;47.944;11.776;2022-12-10T05:59:38;93391.38;;;7.45;23.75
21826;BME280;11075;47.944;11.776;2022-12-10T06:02:06;93389.06;;;6.80;24.39
21826;BME280;11075;47.944;11.776;2022-12-10T06:04:33;93382.31;;;6.15;25.35
21826;BME280;11075;47.944;11.776;2022-12-10T06:06:59;93387.84;;;6.93;24.69
21826;BME280;11075;47.944;11.776;2022-12-10T06:09:26;93387.00;;;6.46;25.26
21826;BME280;11075;47.944;11.776;2022-12-10T06:11:53;93388.59;;;6.35;24.88
21826;BME280;11075;47.944;11.776;2022-12-10T06:14:20;93389.31;;;6.75;24.70
21826;BME280;11075;47.944;11.776;2022-12-10T06:16:47;93385.66;;;6.68;24.96
21826;BME280;11075;47.944;11.776;2022-12-10T06:19:14;93389.31;;;6.75;24.60
21826;BME280;11075;47.944;11.776;2022-12-10T06:21:41;93385.44;;;7.04;24.47
21826;BME280;11075;47.944;11.776;2022-12-10T06:24:08;93387.72;;;6.03;25.51
21826;BME280;11075;47.944;11.776;2022-12-10T06:26:35;93397.03;;;7.40;23.81
21826;BME280;11075;47.944;11.776;2022-12-10T06:29:02;93390.53;;;7.09;24.25
21826;BME280;11075;47.944;11.776;2022-12-10T06:31:31;93389.47;;;6.82;24.77
21826;BME280;11075;47.944;11.776;2022-12-10T06:33:58;93385.72;;;6.40;25.20
21826;BME280;11075;47.944;11.776;2022-12-10T06:36:25;93378.25;;;4.47;27.49
21826;BME280;11075;47.944;11.776;2022-12-10T06:38:52;93376.03;;;5.18;26.67
21826;BME280;11075;47.944;11.776;2022-12-10T06:41:19;93383.78;;;7.00;24.32
21826;BME280;11075;47.944;11.776;2022-12-10T06:43:47;93389.69;;;5.78;25.89
21826;BME280;11075;47.944;11.776;2022-12-10T06:46:16;93390.44;;;6.90;24.55
21826;BME280;11075;47.944;11.776;2022-12-10T06:48:44;93397.91;;;7.28;23.83
21826;BME280;11075;47.944;11.776;2022-12-10T06:51:13;93406.84;;;7.51;23.95
21826;BME280;11075;47.944;11.776;2022-12-10T06:53:40;93406.06;;;7.19;24.17
21826;BME280;11075;47.944;11.776;2022-12-10T06:56:13;93409.88;;;6.43;24.74
21826;BME280;11075;47.944;11.776;2022-12-10T06:58:40;93409.63;;;6.48;25.04
21826;BME280;11075;47.944;11.776;2022-12-10T07:01:29;93414.78;;;6.69;24.54
21826;BME280;11075;47.944;11.776;2022-12-10T07:03:56;93404.78;;;7.13;24.40
21826;BME280;11075;47.944;11.776;2022-12-10T07:06:25;93412.19;;;7.67;23.71
21826;BME280;11075;47.944;11.776;2022-12-10T07:08:53;93418.47;;;7.75;23.52
21826;BME280;11075;47.944;11.776;2022-12-10T07:11:21;93421.56;;;7.42;23.71
21826;BME280;11075;47.944;11.776;2022-12-10T07:13:49;93426.03;;;7.53;23.72
21826;BME280;11075;47.944;11.776;2022-12-10T07:16:23;93418.47;;;7.24;23.84
21826;BME280;11075;47.944;11.776;2022-12-10T07:18:53;93423.03;;;7.55;23.66
21826;BME280;11075;47.944;11.776;2022-12-10T07:21:29;93408.78;;;6.32;24.79
21826;BME280;11075;47.944;11.776;2022-12-10T07:24:03;93408.66;;;7.63;23.81
21826;BME280;11075;47.944;11.776;2022-12-10T07:26:32;93403.56;;;6.95;24.59
21826;BME280;11075;47.944;11.776;2022-12-10T07:29:00;93395.94;;;6.10;25.25
21826;BME280;11075;47.944;11.776;2022-12-10T07:31:27;93386.91;;;5.74;26.23
21826;BME280;11075;47.944;11.776;2022-12-10T07:33:57;93400.22;;;7.30;24.20
21826;BME280;11075;47.944;11.776;2022-12-10T07:36:25;93395.03;;;6.46;24.80
21826;BME280;11075;47.944;11.776;2022-12-10T07:38:54;93399.53;;;6.42;25.35
21826;BME280;11075;47.944;11.776;2022-12-10T07:41:22;93416.25;;;8.12;23.30
21826;BME280;11075;47.944;11.776;2022-12-10T07:43:50;93409.53;;;7.20;24.17
21826;BME280;11075;47.944;11.776;2022-12-10T07:46:26;93392.47;;;7.24;24.43
21826;BME280;11075;47.944;11.776;2022-12-10T07:48:54;93393.25;;;4.39;27.46
21826;BME280;11075;47.944;11.776;2022-12-10T07:51:22;93400.53;;;7.59;23.89
21826;BME280;11075;47.944;11.776;2022-12-10T07:53:53;93392.72;;;5.40;26.29
21826;BME280;11075;47.944;11.776;2022-12-10T07:56:22;93397.19;;;7.15;24.30
21826;BME280;11075;47.944;11.776;2022-12-10T07:58:49;93390.44;;;6.18;25.69
21826;BME280;11075;47.944;11.776;2022-12-10T08:01:21;93384.72;;;6.04;25.57
21826;BME280;11075;47.944;11.776;2022-12-10T08:03:49;93381.44;;;6.67;24.94
21826;BME280;11075;47.944;11.776;2022-12-10T08:06:20;93383.09;;;6.71;24.98
21826;BME280;11075;47.944;11.776;2022-12-10T08:08:48;93375.63;;;6.49;25.25
21826;BME280;11075;47.944;11.776;2022-12-10T08:11:17;93383.00;;;6.99;24.64
21826;BME280;11075;47.944;11.776;2022-12-10T08:13:45;93388.72;;;6.98;24.58
21826;BME280;11075;47.944;11.776;2022-12-10T08:16:20;93385.56;;;6.48;24.95
21826;BME280;11075;47.944;11.776;2022-12-10T08:18:49;93384.38;;;6.33;25.53
21826;BME280;11075;47.944;11.776;2022-12-10T08:21:21;93380.03;;;5.12;26.36
21826;BME280;11075;47.944;11.776;2022-12-10T08:23:49;93368.69;;;5.52;26.73
21826;BME280;11075;47.944;11.776;2022-12-10T08:26:19;93380.69;;;4.97;27.20
21826;BME280;11075;47.944;11.776;2022-12-10T08:28:47;93388.41;;;5.99;25.84
21826;BME280;11075;47.944;11.776;2022-12-10T08:31:16;93381.78;;;6.65;25.00
21826;BME280;11075;47.944;11.776;2022-12-10T08:33:44;93385.50;;;6.60;24.87
21826;BME280;11075;47.944;11.776;2022-12-10T08:36:14;93385.44;;;5.77;25.99
21826;BME280;11075;47.944;11.776;2022-12-10T08:38:41;93393.88;;;5.91;25.98
21826;BME280;11075;47.944;11.776;2022-12-10T08:41:20;93388.81;;;5.61;26.62
21826;BME280;11075;47.944;11.776;2022-12-10T08:43:51;93404.66;;;6.62;25.18
21826;BME280;11075;47.944;11.776;2022-12-10T08:46:19;93388.81;;;5.25;26.99
21826;BME280;11075;47.944;11.776;2022-12-10T08:48:46;93388.91;;;6.45;25.43
21826;BME280;11075;47.944;11.776;2022-12-10T08:51:15;93397.38;;;5.67;26.47
21826;BME280;11075;47.944;11.776;2022-12-10T08:53:43;93407.03;;;6.24;25.41
21826;BME280;11075;47.944;11.776;2022-12-10T08:56:11;93413.44;;;6.47;25.27
21826;BME280;11075;47.944;11.776;2022-12-10T08:58:39;93419.75;;;7.46;24.04
21826;BME280;11075;47.944;11.776;2022-12-10T09:01:11;93420.94;;;7.17;24.35
21826;BME280;11075;47.944;11.776;2022-12-10T09:03:39;93414.78;;;6.41;25.73
21826;BME280;11075;47.944;11.776;2022-12-10T09:06:09;93422.75;;;7.60;24.23
21826;BME280;11075;47.944;11.776;2022-12-10T09:08:38;93427.00;;;5.62;26.41
21826;BME280;11075;47.944;11.776;2022-12-10T09:11:26;93434.97;;;7.42;24.29
21826;BME280;11075;47.944;11.776;2022-12-10T09:13:55;93438.84;;;7.44;24.12
21826;BME280;11075;47.944;11.776;2022-12-10T09:16:34;93434.97;;;7.42;24.43
21826;BME280;11075;47.944;11.776;2022-12-10T09:19:02;93436.31;;;7.04;24.94
21826;BME280;11075;47.944;11.776;2022-12-10T09:21:29;93443.06;;;6.98;24.74
21826;BME280;11075;47.944;11.776;2022-12-10T09:23:57;93428.78;;;5.21;26.92
21826;BME280;11075;47.944;11.776;2022-12-10T09:26:25;93411.13;;;4.71;27.53
21826;BME280;11075;47.944;11.776;2022-12-10T09:28:52;93413.78;;;5.53;26.69
21826;BME280;11075;47.944;11.776;2022-12-10T09:31:20;93431.97;;;6.84;25.27
21826;BME280;11075;47.944;11.776;2022-12-10T09:33:48;93424.56;;;6.09;26.32
21826;BME280;11075;47.944;11.776;2022-12-10T09:36:15;93432.63;;;6.65;25.44
21826;BME280;11075;47.944;11.776;2022-12-10T09:38:44;93425.56;;;6.17;26.14
21826;BME280;11075;47.944;11.776;2022-12-10T09:51:34;93421.75;;;6.18;26.12
21826;BME280;11075;47.944;11.776;2022-12-10T09:54:22;93427.16;;;6.06;26.28
21826;BME280;11075;47.944;11.776;2022-12-10T09:56:52;93421.09;;;5.81;26.49
21826;BME280;11075;47.944;11.776;2022-12-10T10:07:34;93406.72;;;4.88;27.31
21826;BME280;11075;47.944;11.776;2022-12-10T10:10:06;93407.41;;;5.46;26.42
21826;BME280;11075;47.944;11.776;2022-12-10T10:12:34;93410.81;;;5.83;26.03
21826;BME280;11075;47.944;11.776;2022-12-10T10:15:23;93420.50;;;6.99;24.98
21826;BME280;11075;47.944;11.776;2022-12-10T10:17:53;93424.38;;;6.86;24.85
21826;BME280;11075;47.944;11.776;2022-12-10T10:20:20;93425.53;;;5.89;25.97
21826;BME280;11075;47.944;11.776;2022-12-10T10:22:47;93411.09;;;5.65;26.40
21826;BME280;11075;47.944;11.776;2022-12-10T10:25:17;93407.16;;;4.90;27.24
21826;BME280;11075;47.944;11.776;2022-12-10T10:27:44;93404.94;;;5.04;26.80
21826;BME280;11075;47.944;11.776;2022-12-10T10:30:17;93410.69;;;6.31;25.78
21826;BME280;11075;47.944;11.776;2022-12-10T10:32:54;93420.94;;;6.29;25.35
21826;BME280;11075;47.944;11.776;2022-12-10T10:35:22;93399.06;;;6.12;26.23
21826;BME280;11075;47.944;11.776;2022-12-10T10:37:55;93410.03;;;5.94;25.95
21826;BME280;11075;47.944;11.776;2022-12-10T10:40:41;93392.94;;;5.22;26.94
21826;BME280;11075;47.944;11.776;2022-12-10T10:43:27;93410.25;;;4.67;27.39
21826;BME280;11075;47.944;11.776;2022-12-10T10:46:06;93403.94;;;5.70;25.77
21826;BME280;11075;47.944;11.776;2022-12-10T10:48:37;93413.50;;;6.79;24.92
21826;BME280;11075;47.944;11.776;2022-12-10T10:51:07;93407.38;;;6.22;25.63
21826;BME280;11075;47.944;11.776;2022-12-10T10:56:11;93405.53;;;6.11;26.07
21826;BME280;11075;47.944;11.776;2022-12-10T10:59:35;93387.97;;;2.97;29.84
21826;BME280;11075;47.944;11.776;2022-12-10T11:04:13;93373.78;;;4.71;28.10
21826;BME280;11075;47.944;11.776;2022-12-10T11:06:41;93388.75;;;7.64;24.45
21826;BME280;11075;47.944;11.776;2022-12-10T11:09:22;93401.94;;;7.38;24.77
21826;BME280;11075;47.944;11.776;2022-12-10T11:11:58;93396.34;;;7.27;24.80
21826;BME280;11075;47.944;11.776;2022-12-10T11:14:31;93386.28;;;5.16;27.57
21826;BME280;11075;47.944;11.776;2022-12-10T11:19:42;93388.97;;;6.77;25.34
21826;BME280;11075;47.944;11.776;2022-12-10T11:22:38;93383.72;;;5.20;26.92
21826;BME280;11075;47.944;11.776;2022-12-10T11:25:11;93380.53;;;3.61;28.76
21826;BME280;11075;47.944;11.776;2022-12-10T11:28:00;93386.03;;;4.97;27.07
21826;BME280;11075;47.944;11.776;2022-12-10T11:30:32;93378.69;;;5.67;26.69
21826;BME280;11075;47.944;11.776;2022-12-10T11:41:49;93376.41;;;4.59;27.69
21826;BME280;11075;47.944;11.776;2022-12-10T11:53:02;93362.50;;;4.54;27.97
21826;BME280;11075;47.944;11.776;2022-12-10T12:01:24;93362.22;;;3.39;29.27
21826;BME280;11075;47.944;11.776;2022-12-10T12:07:17;93358.44;;;4.35;28.66
21826;BME280;11075;47.944;11.776;2022-12-10T12:13:05;93354.41;;;3.34;30.18
21826;BME280;11075;47.944;11.776;2022-12-10T12:15:50;93373.97;;;3.59;28.25
21826;BME280;11075;47.944;11.776;2022-12-10T12:18:23;93373.75;;;4.26;27.92
21826;BME280;11075;47.944;11.776;2022-12-10T12:21:01;93373.25;;;5.27;27.19
21826;BME280;11075;47.944;11.776;2022-12-10T12:24:01;93375.19;;;4.24;28.29
21826;BME280;11075;47.944;11.776;2022-12-10T12:26:39;93366.94;;;3.33;29.48
21826;BME280;11075;47.944;11.776;2022-12-10T12:32:04;93394.22;;;4.67;27.66
21826;BME280;11075;47.944;11.776;2022-12-10T12:34:37;93395.16;;;5.45;26.69
21826;BME280;11075;47.944;11.776;2022-12-10T12:37:14;93380.09;;;2.71;29.82
21826;BME280;11075;47.944;11.776;2022-12-10T12:39:53;93389.88;;;3.76;28.80
21826;BME280;11075;47.944;11.776;2022-12-10T12:42:38;93393.69;;;4.41;27.84
21826;BME280;11075;47.944;11.776;2022-12-10T12:45:10;93398.50;;;4.93;27.43
21826;BME280;11075;47.944;11.776;2022-12-10T12:47:45;93405.44;;;6.35;25.82
21826;BME280;11075;47.944;11.776;2022-12-10T12:53:02;93407.50;;;5.00;27.42
21826;BME280;11075;47.944;11.776;2022-12-10T12:55:35;93416.13;;;6.63;25.53
21826;BME280;11075;47.944;11.776;2022-12-10T13:00:38;93417.50;;;6.29;25.45
21826;BME280;11075;47.944;11.776;2022-12-10T13:03:32;93423.72;;;6.33;25.63
21826;BME280;11075;47.944;11.776;2022-12-10T13:06:24;93414.69;;;5.97;26.15
21826;BME280;11075;47.944;11.776;2022-12-10T13:11:45;93414.97;;;4.95;27.88
21826;BME280;11075;47.944;11.776;2022-12-10T13:14:35;93424.38;;;4.14;28.20
21826;BME280;11075;47.944;11.776;2022-12-10T13:17:28;93425.78;;;4.65;27.44
21826;BME280;11075;47.944;11.776;2022-12-10T13:23:03;93434.22;;;5.13;26.90
21826;BME280;11075;47.944;11.776;2022-12-10T13:28:49;93401.16;;;1.60;31.85
21826;BME280;11075;47.944;11.776;2022-12-10T13:31:21;93413.84;;;4.51;28.52
21826;BME280;11075;47.944;11.776;2022-12-10T13:41:32;93467.28;;;6.33;26.12
21826;BME280;11075;47.944;11.776;2022-12-10T13:44:36;93467.19;;;6.30;25.62
21826;BME280;11075;47.944;11.776;2022-12-10T13:49:59;93448.28;;;3.81;29.36
21826;BME280;11075;47.944;11.776;2022-12-10T13:52:56;93460.81;;;5.33;27.05
21826;BME280;11075;47.944;11.776;2022-12-10T13:55:39;93470.63;;;5.90;26.55
21826;BME280;11075;47.944;11.776;2022-12-10T13:58:49;93470.19;;;4.07;27.91
21826;BME280;11075;47.944;11.776;2022-12-10T14:06:39;93475.28;;;3.41;29.33
21826;BME280;11075;47.944;11.776;2022-12-10T14:09:19;93491.19;;;6.14;26.10
21826;BME280;11075;47.944;11.776;2022-12-10T14:11:54;93501.31;;;5.11;26.61
21826;BME280;11075;47.944;11.776;2022-12-10T14:14:35;93496.47;;;4.18;27.56
21826;BME280;11075;47.944;11.776;2022-12-10T14:19:42;93499.53;;;5.15;27.55
21826;BME280;11075;47.944;11.776;2022-12-10T14:22:16;93498.34;;;3.96;28.70
21826;BME280;11075;47.944;11.776;2022-12-10T14:24:48;93507.91;;;5.50;26.73
21826;BME280;11075;47.944;11.776;2022-12-10T14:27:24;93491.97;;;3.21;29.44
21826;BME280;11075;47.944;11.776;2022-12-10T14:30:15;93515.06;;;5.95;26.36
21826;BME280;11075;47.944;11.776;2022-12-10T14:32:43;93494.84;;;3.46;28.87
21826;BME280;11075;47.944;11.776;2022-12-10T14:35:28;93493.97;;;2.52;30.54
21826;BME280;11075;47.944;11.776;2022-12-10T14:37:57;93503.66;;;5.25;27.64
21826;BME280;11075;47.944;11.776;2022-12-10T14:40:28;93524.81;;;5.42;26.64
21826;BME280;11075;47.944;11.776;2022-12-10T14:43:04;93521.56;;;4.79;27.61
21826;BME280;11075;47.944;11.776;2022-12-10T14:45:40;93520.91;;;3.69;28.56
21826;BME280;11075;47.944;11.776;2022-12-10T14:48:12;93511.44;;;3.81;29.15
21826;BME280;11075;47.944;11.776;2022-12-10T14:50:39;93514.06;;;3.51;28.96
21826;BME280;11075;47.944;11.776;2022-12-10T14:53:14;93516.13;;;4.34;28.77
21826;BME280;11075;47.944;11.776;2022-12-10T14:55:43;93533.66;;;5.10;27.16
21826;BME280;11075;47.944;11.776;2022-12-10T14:58:21;93544.31;;;5.43;26.62
21826;BME280;11075;47.944;11.776;2022-12-10T15:00:52;93528.84;;;2.85;30.20
21826;BME280;11075;47.944;11.776;2022-12-10T15:03:26;93558.72;;;5.75;26.23
21826;BME280;11075;47.944;11.776;2022-12-10T15:05:56;93556.78;;;6.36;25.64
21826;BME280;11075;47.944;11.776;2022-12-10T15:08:26;93563.06;;;4.47;27.35
21826;BME280;11075;47.944;11.776;2022-12-10T15:10:58;93539.25;;;4.00;29.21
21826;BME280;11075;47.944;11.776;2022-12-10T15:13:38;93554.94;;;4.44;27.92